Terminal Aerodrome Forecast
Issued by NWS

Home | Current Version | Previous Version | Graphics & Text | Print | Product List | Glossary On
Versions: 1 2 3 4 5 6 7 8 9 10 11 12 13 14 15
000
FTUS41 KCLE 272043 AAA
TAFFDY
TAF AMD
KFDY 272043Z 2721/2818 28008KT P6SM -SHRA BKN060
      TEMPO 2721/2722 14010KT 5SM -SHRA BKN035
     FM280000 19008KT P6SM BKN050 BKN100
     FM280800 22003KT 4SM BR VCSH BKN015
     FM281300 27008KT P6SM BKN025=

USA.gov is the U.S. government's official web portal to all federal, state and local government web resources and services.